sensor_id;sensor_type;location;lat;lon;timestamp;P1;durP1;ratioP1;P2;durP2;ratioP2
26536;SDS011;14204;51.262;5.488;2023-03-23T00:01:07;5.70;;;2.95;;
26536;SDS011;14204;51.262;5.488;2023-03-23T00:03:44;4.50;;;3.38;;
26536;SDS011;14204;51.262;5.488;2023-03-23T00:06:11;5.20;;;3.20;;
26536;SDS011;14204;51.262;5.488;2023-03-23T00:08:42;4.00;;;3.03;;
26536;SDS011;14204;51.262;5.488;2023-03-23T00:11:15;5.93;;;3.28;;
26536;SDS011;14204;51.262;5.488;2023-03-23T00:13:46;5.80;;;3.60;;
26536;SDS011;14204;51.262;5.488;2023-03-23T00:16:15;4.97;;;3.40;;
26536;SDS011;14204;51.262;5.488;2023-03-23T00:18:44;4.57;;;3.05;;
26536;SDS011;14204;51.262;5.488;2023-03-23T00:21:17;5.15;;;3.22;;
26536;SDS011;14204;51.262;5.488;2023-03-23T00:23:53;7.93;;;3.15;;
26536;SDS011;14204;51.262;5.488;2023-03-23T00:26:18;4.13;;;3.65;;
26536;SDS011;14204;51.262;5.488;2023-03-23T00:28:44;5.20;;;3.10;;
26536;SDS011;14204;51.262;5.488;2023-03-23T00:31:11;4.68;;;2.95;;
26536;SDS011;14204;51.262;5.488;2023-03-23T00:33:39;4.05;;;3.15;;
26536;SDS011;14204;51.262;5.488;2023-03-23T00:36:08;7.63;;;3.53;;
26536;SDS011;14204;51.262;5.488;2023-03-23T00:38:36;5.82;;;3.08;;
26536;SDS011;14204;51.262;5.488;2023-03-23T00:41:02;5.25;;;3.10;;
26536;SDS011;14204;51.262;5.488;2023-03-23T00:43:29;4.38;;;3.00;;
26536;SDS011;14204;51.262;5.488;2023-03-23T00:45:56;3.80;;;3.10;;
26536;SDS011;14204;51.262;5.488;2023-03-23T00:48:27;3.30;;;2.97;;
26536;SDS011;14204;51.262;5.488;2023-03-23T00:50:54;4.43;;;3.05;;
26536;SDS011;14204;51.262;5.488;2023-03-23T00:53:20;4.43;;;3.08;;
26536;SDS011;14204;51.262;5.488;2023-03-23T00:55:47;5.70;;;3.40;;
26536;SDS011;14204;51.262;5.488;2023-03-23T00:58:14;5.05;;;3.50;;
26536;SDS011;14204;51.262;5.488;2023-03-23T01:00:41;5.20;;;3.92;;
26536;SDS011;14204;51.262;5.488;2023-03-23T01:03:07;5.30;;;3.60;;
26536;SDS011;14204;51.262;5.488;2023-03-23T01:05:38;6.88;;;3.92;;
26536;SDS011;14204;51.262;5.488;2023-03-23T01:08:05;9.15;;;4.05;;
26536;SDS011;14204;51.262;5.488;2023-03-23T01:10:32;6.85;;;3.60;;
26536;SDS011;14204;51.262;5.488;2023-03-23T01:13:01;4.97;;;4.20;;
26536;SDS011;14204;51.262;5.488;2023-03-23T01:15:28;5.13;;;3.42;;
26536;SDS011;14204;51.262;5.488;2023-03-23T01:17:54;6.28;;;3.85;;
26536;SDS011;14204;51.262;5.488;2023-03-23T01:20:20;4.28;;;3.38;;
26536;SDS011;14204;51.262;5.488;2023-03-23T01:22:46;4.03;;;3.70;;
26536;SDS011;14204;51.262;5.488;2023-03-23T01:25:12;5.55;;;3.50;;
26536;SDS011;14204;51.262;5.488;2023-03-23T01:27:39;4.35;;;3.60;;
26536;SDS011;14204;51.262;5.488;2023-03-23T01:30:07;4.78;;;4.20;;
26536;SDS011;14204;51.262;5.488;2023-03-23T01:32:35;5.43;;;4.10;;
26536;SDS011;14204;51.262;5.488;2023-03-23T01:35:01;7.90;;;3.53;;
26536;SDS011;14204;51.262;5.488;2023-03-23T01:37:27;5.35;;;4.03;;
26536;SDS011;14204;51.262;5.488;2023-03-23T01:39:53;4.03;;;3.63;;
26536;SDS011;14204;51.262;5.488;2023-03-23T01:42:26;5.60;;;4.05;;
26536;SDS011;14204;51.262;5.488;2023-03-23T01:47:44;5.38;;;4.10;;
26536;SDS011;14204;51.262;5.488;2023-03-23T01:50:28;4.68;;;3.85;;
26536;SDS011;14204;51.262;5.488;2023-03-23T01:52:59;4.70;;;3.78;;
26536;SDS011;14204;51.262;5.488;2023-03-23T01:55:26;4.43;;;3.13;;
26536;SDS011;14204;51.262;5.488;2023-03-23T01:57:54;6.65;;;3.65;;
26536;SDS011;14204;51.262;5.488;2023-03-23T02:00:21;5.45;;;3.25;;
26536;SDS011;14204;51.262;5.488;2023-03-23T02:02:48;4.00;;;3.15;;
26536;SDS011;14204;51.262;5.488;2023-03-23T02:05:18;4.65;;;3.70;;
26536;SDS011;14204;51.262;5.488;2023-03-23T02:07:53;5.85;;;3.60;;
26536;SDS011;14204;51.262;5.488;2023-03-23T02:10:24;5.53;;;3.22;;
26536;SDS011;14204;51.262;5.488;2023-03-23T02:12:49;3.55;;;3.22;;
26536;SDS011;14204;51.262;5.488;2023-03-23T02:15:15;5.65;;;3.42;;
26536;SDS011;14204;51.262;5.488;2023-03-23T02:17:45;3.63;;;3.10;;
26536;SDS011;14204;51.262;5.488;2023-03-23T02:26:19;4.28;;;3.58;;
26536;SDS011;14204;51.262;5.488;2023-03-23T02:34:26;4.20;;;3.80;;
26536;SDS011;14204;51.262;5.488;2023-03-23T02:37:03;5.57;;;4.07;;
26536;SDS011;14204;51.262;5.488;2023-03-23T02:39:34;6.78;;;4.68;;
26536;SDS011;14204;51.262;5.488;2023-03-23T02:42:05;5.78;;;3.95;;
26536;SDS011;14204;51.262;5.488;2023-03-23T02:44:33;4.30;;;3.90;;
26536;SDS011;14204;51.262;5.488;2023-03-23T02:47:02;4.15;;;3.63;;
26536;SDS011;14204;51.262;5.488;2023-03-23T02:49:32;8.63;;;4.70;;
26536;SDS011;14204;51.262;5.488;2023-03-23T02:52:02;7.38;;;3.92;;
26536;SDS011;14204;51.262;5.488;2023-03-23T02:54:40;3.50;;;3.15;;
26536;SDS011;14204;51.262;5.488;2023-03-23T02:57:07;5.78;;;4.65;;
26536;SDS011;14204;51.262;5.488;2023-03-23T02:59:33;5.05;;;4.32;;
26536;SDS011;14204;51.262;5.488;2023-03-23T03:02:21;6.47;;;3.75;;
26536;SDS011;14204;51.262;5.488;2023-03-23T03:13:14;4.88;;;3.75;;
26536;SDS011;14204;51.262;5.488;2023-03-23T03:18:24;4.78;;;3.78;;
26536;SDS011;14204;51.262;5.488;2023-03-23T03:20:56;5.47;;;4.20;;
26536;SDS011;14204;51.262;5.488;2023-03-23T03:25:54;6.57;;;3.38;;
26536;SDS011;14204;51.262;5.488;2023-03-23T03:28:22;4.00;;;3.60;;
26536;SDS011;14204;51.262;5.488;2023-03-23T03:30:55;5.85;;;3.38;;
26536;SDS011;14204;51.262;5.488;2023-03-23T03:33:26;5.20;;;3.65;;
26536;SDS011;14204;51.262;5.488;2023-03-23T03:35:56;6.10;;;3.72;;
26536;SDS011;14204;51.262;5.488;2023-03-23T03:38:24;3.38;;;3.03;;
26536;SDS011;14204;51.262;5.488;2023-03-23T03:40:50;5.97;;;3.10;;
26536;SDS011;14204;51.262;5.488;2023-03-23T03:43:17;4.15;;;2.88;;
26536;SDS011;14204;51.262;5.488;2023-03-23T03:45:42;3.35;;;2.97;;
26536;SDS011;14204;51.262;5.488;2023-03-23T03:48:09;5.35;;;2.80;;
26536;SDS011;14204;51.262;5.488;2023-03-23T03:50:35;4.60;;;2.97;;
26536;SDS011;14204;51.262;5.488;2023-03-23T03:53:01;7.53;;;2.90;;
26536;SDS011;14204;51.262;5.488;2023-03-23T03:55:28;5.68;;;2.85;;
26536;SDS011;14204;51.262;5.488;2023-03-23T03:57:54;4.88;;;2.33;;
26536;SDS011;14204;51.262;5.488;2023-03-23T04:00:20;6.97;;;3.28;;
26536;SDS011;14204;51.262;5.488;2023-03-23T04:02:47;10.90;;;3.50;;
26536;SDS011;14204;51.262;5.488;2023-03-23T04:05:19;4.13;;;2.13;;
26536;SDS011;14204;51.262;5.488;2023-03-23T04:07:46;4.05;;;2.85;;
26536;SDS011;14204;51.262;5.488;2023-03-23T04:10:14;7.00;;;2.65;;
26536;SDS011;14204;51.262;5.488;2023-03-23T04:12:40;7.15;;;2.40;;
26536;SDS011;14204;51.262;5.488;2023-03-23T04:15:07;6.70;;;2.78;;
26536;SDS011;14204;51.262;5.488;2023-03-23T04:17:34;5.93;;;2.45;;
26536;SDS011;14204;51.262;5.488;2023-03-23T04:20:00;5.22;;;2.75;;
26536;SDS011;14204;51.262;5.488;2023-03-23T04:22:31;5.53;;;2.75;;
26536;SDS011;14204;51.262;5.488;2023-03-23T04:24:58;4.13;;;2.67;;
26536;SDS011;14204;51.262;5.488;2023-03-23T04:27:27;6.20;;;2.65;;
26536;SDS011;14204;51.262;5.488;2023-03-23T04:29:55;5.07;;;3.28;;
26536;SDS011;14204;51.262;5.488;2023-03-23T04:32:23;7.75;;;2.67;;
26536;SDS011;14204;51.262;5.488;2023-03-23T04:34:50;4.03;;;2.40;;
26536;SDS011;14204;51.262;5.488;2023-03-23T04:37:15;3.75;;;2.13;;
26536;SDS011;14204;51.262;5.488;2023-03-23T04:39:41;5.50;;;2.50;;
26536;SDS011;14204;51.262;5.488;2023-03-23T04:42:10;6.63;;;2.60;;
26536;SDS011;14204;51.262;5.488;2023-03-23T04:44:36;6.55;;;2.70;;
26536;SDS011;14204;51.262;5.488;2023-03-23T04:47:01;7.00;;;2.33;;
26536;SDS011;14204;51.262;5.488;2023-03-23T04:49:27;6.13;;;2.25;;
26536;SDS011;14204;51.262;5.488;2023-03-23T04:51:54;5.47;;;2.45;;
26536;SDS011;14204;51.262;5.488;2023-03-23T04:54:21;5.60;;;2.75;;
26536;SDS011;14204;51.262;5.488;2023-03-23T04:56:47;5.47;;;2.60;;
26536;SDS011;14204;51.262;5.488;2023-03-23T04:59:13;7.22;;;2.40;;
26536;SDS011;14204;51.262;5.488;2023-03-23T05:01:40;5.22;;;2.50;;
26536;SDS011;14204;51.262;5.488;2023-03-23T05:04:10;7.95;;;2.72;;
26536;SDS011;14204;51.262;5.488;2023-03-23T05:06:41;4.43;;;2.35;;
26536;SDS011;14204;51.262;5.488;2023-03-23T05:09:09;7.15;;;2.25;;
26536;SDS011;14204;51.262;5.488;2023-03-23T05:11:35;4.70;;;2.85;;
26536;SDS011;14204;51.262;5.488;2023-03-23T05:14:02;5.82;;;2.47;;
26536;SDS011;14204;51.262;5.488;2023-03-23T05:16:28;4.72;;;2.50;;
26536;SDS011;14204;51.262;5.488;2023-03-23T05:18:55;3.90;;;2.50;;
26536;SDS011;14204;51.262;5.488;2023-03-23T05:21:22;6.07;;;2.70;;
26536;SDS011;14204;51.262;5.488;2023-03-23T05:23:48;7.40;;;2.88;;
26536;SDS011;14204;51.262;5.488;2023-03-23T05:26:19;6.50;;;2.92;;
26536;SDS011;14204;51.262;5.488;2023-03-23T05:28:46;6.47;;;2.92;;
26536;SDS011;14204;51.262;5.488;2023-03-23T05:31:13;7.20;;;3.13;;
26536;SDS011;14204;51.262;5.488;2023-03-23T05:33:38;7.45;;;2.80;;
26536;SDS011;14204;51.262;5.488;2023-03-23T05:36:04;7.60;;;2.65;;
26536;SDS011;14204;51.262;5.488;2023-03-23T05:38:31;6.35;;;2.40;;
26536;SDS011;14204;51.262;5.488;2023-03-23T05:41:00;5.32;;;2.45;;
26536;SDS011;14204;51.262;5.488;2023-03-23T05:43:29;5.90;;;2.58;;
26536;SDS011;14204;51.262;5.488;2023-03-23T05:45:55;6.57;;;2.40;;
26536;SDS011;14204;51.262;5.488;2023-03-23T05:48:21;8.43;;;2.75;;
26536;SDS011;14204;51.262;5.488;2023-03-23T05:50:46;10.73;;;2.45;;
26536;SDS011;14204;51.262;5.488;2023-03-23T05:53:12;7.07;;;2.22;;
26536;SDS011;14204;51.262;5.488;2023-03-23T05:55:38;7.03;;;2.47;;
26536;SDS011;14204;51.262;5.488;2023-03-23T05:58:03;9.65;;;3.17;;
26536;SDS011;14204;51.262;5.488;2023-03-23T06:00:29;9.07;;;2.33;;
26536;SDS011;14204;51.262;5.488;2023-03-23T06:02:55;7.07;;;2.17;;
26536;SDS011;14204;51.262;5.488;2023-03-23T06:05:22;5.15;;;2.53;;
26536;SDS011;14204;51.262;5.488;2023-03-23T06:07:48;8.18;;;2.78;;
26536;SDS011;14204;51.262;5.488;2023-03-23T06:10:14;4.03;;;1.90;;
26536;SDS011;14204;51.262;5.488;2023-03-23T06:12:41;6.55;;;1.90;;
26536;SDS011;14204;51.262;5.488;2023-03-23T06:15:08;6.07;;;2.03;;
26536;SDS011;14204;51.262;5.488;2023-03-23T06:17:34;6.75;;;2.17;;
26536;SDS011;14204;51.262;5.488;2023-03-23T06:20:01;6.10;;;2.08;;
26536;SDS011;14204;51.262;5.488;2023-03-23T06:22:29;4.90;;;1.80;;
26536;SDS011;14204;51.262;5.488;2023-03-23T06:24:55;3.55;;;1.77;;
26536;SDS011;14204;51.262;5.488;2023-03-23T06:27:23;5.88;;;1.60;;
26536;SDS011;14204;51.262;5.488;2023-03-23T06:29:49;6.70;;;2.05;;
26536;SDS011;14204;51.262;5.488;2023-03-23T06:32:15;8.38;;;2.42;;
26536;SDS011;14204;51.262;5.488;2023-03-23T06:34:40;3.47;;;1.55;;
26536;SDS011;14204;51.262;5.488;2023-03-23T06:37:08;5.22;;;2.03;;
26536;SDS011;14204;51.262;5.488;2023-03-23T06:39:34;4.93;;;1.98;;
26536;SDS011;14204;51.262;5.488;2023-03-23T06:42:01;6.28;;;2.20;;
26536;SDS011;14204;51.262;5.488;2023-03-23T06:44:28;9.13;;;2.08;;
26536;SDS011;14204;51.262;5.488;2023-03-23T06:46:54;4.32;;;1.73;;
26536;SDS011;14204;51.262;5.488;2023-03-23T06:49:20;5.07;;;2.00;;
26536;SDS011;14204;51.262;5.488;2023-03-23T06:51:45;3.47;;;1.67;;
26536;SDS011;14204;51.262;5.488;2023-03-23T06:54:11;5.18;;;2.15;;
26536;SDS011;14204;51.262;5.488;2023-03-23T06:56:37;6.50;;;2.53;;
26536;SDS011;14204;51.262;5.488;2023-03-23T06:59:02;6.97;;;2.17;;
26536;SDS011;14204;51.262;5.488;2023-03-23T07:01:28;8.48;;;1.88;;
26536;SDS011;14204;51.262;5.488;2023-03-23T07:03:55;6.15;;;2.10;;
26536;SDS011;14204;51.262;5.488;2023-03-23T07:06:23;6.85;;;2.15;;
26536;SDS011;14204;51.262;5.488;2023-03-23T07:08:50;4.65;;;2.10;;
26536;SDS011;14204;51.262;5.488;2023-03-23T07:11:15;4.90;;;2.00;;
26536;SDS011;14204;51.262;5.488;2023-03-23T07:13:41;6.18;;;2.13;;
26536;SDS011;14204;51.262;5.488;2023-03-23T07:16:07;6.40;;;1.88;;
26536;SDS011;14204;51.262;5.488;2023-03-23T07:18:34;5.10;;;2.53;;
26536;SDS011;14204;51.262;5.488;2023-03-23T07:21:00;5.13;;;2.20;;
26536;SDS011;14204;51.262;5.488;2023-03-23T07:23:25;5.97;;;1.92;;
26536;SDS011;14204;51.262;5.488;2023-03-23T07:25:51;5.85;;;2.05;;
26536;SDS011;14204;51.262;5.488;2023-03-23T07:28:18;5.85;;;2.22;;
26536;SDS011;14204;51.262;5.488;2023-03-23T07:30:44;9.88;;;2.13;;
26536;SDS011;14204;51.262;5.488;2023-03-23T07:33:10;5.03;;;2.08;;
26536;SDS011;14204;51.262;5.488;2023-03-23T07:35:37;10.45;;;2.45;;
26536;SDS011;14204;51.262;5.488;2023-03-23T07:38:04;5.57;;;2.40;;
26536;SDS011;14204;51.262;5.488;2023-03-23T07:40:31;6.78;;;2.53;;
26536;SDS011;14204;51.262;5.488;2023-03-23T07:43:00;6.55;;;1.90;;
26536;SDS011;14204;51.262;5.488;2023-03-23T07:45:28;6.13;;;2.28;;
26536;SDS011;14204;51.262;5.488;2023-03-23T07:47:54;7.45;;;2.53;;
26536;SDS011;14204;51.262;5.488;2023-03-23T07:50:20;7.95;;;2.47;;
26536;SDS011;14204;51.262;5.488;2023-03-23T07:52:58;4.65;;;1.83;;
26536;SDS011;14204;51.262;5.488;2023-03-23T07:55:24;6.15;;;2.67;;
26536;SDS011;14204;51.262;5.488;2023-03-23T07:57:52;8.32;;;2.17;;
26536;SDS011;14204;51.262;5.488;2023-03-23T08:00:19;8.30;;;2.92;;
26536;SDS011;14204;51.262;5.488;2023-03-23T08:02:50;7.32;;;2.33;;
26536;SDS011;14204;51.262;5.488;2023-03-23T08:05:18;10.07;;;2.85;;
26536;SDS011;14204;51.262;5.488;2023-03-23T08:07:45;7.90;;;2.58;;
26536;SDS011;14204;51.262;5.488;2023-03-23T08:10:12;9.13;;;2.17;;
26536;SDS011;14204;51.262;5.488;2023-03-23T08:12:40;5.03;;;1.70;;
26536;SDS011;14204;51.262;5.488;2023-03-23T08:15:07;7.78;;;1.73;;
26536;SDS011;14204;51.262;5.488;2023-03-23T08:17:34;3.70;;;1.02;;
26536;SDS011;14204;51.262;5.488;2023-03-23T08:20:01;4.22;;;1.45;;
26536;SDS011;14204;51.262;5.488;2023-03-23T08:22:34;3.33;;;1.30;;
26536;SDS011;14204;51.262;5.488;2023-03-23T08:25:00;5.13;;;1.98;;
26536;SDS011;14204;51.262;5.488;2023-03-23T08:27:28;7.55;;;1.95;;
26536;SDS011;14204;51.262;5.488;2023-03-23T08:29:54;5.95;;;2.10;;
26536;SDS011;14204;51.262;5.488;2023-03-23T08:32:20;10.13;;;2.28;;
26536;SDS011;14204;51.262;5.488;2023-03-23T08:34:45;4.28;;;1.70;;
26536;SDS011;14204;51.262;5.488;2023-03-23T08:37:11;4.55;;;1.73;;
26536;SDS011;14204;51.262;5.488;2023-03-23T08:39:37;6.53;;;1.48;;
26536;SDS011;14204;51.262;5.488;2023-03-23T08:42:03;4.03;;;1.40;;
26536;SDS011;14204;51.262;5.488;2023-03-23T08:44:29;4.25;;;1.40;;
26536;SDS011;14204;51.262;5.488;2023-03-23T08:46:54;3.08;;;1.10;;
26536;SDS011;14204;51.262;5.488;2023-03-23T08:49:22;3.65;;;1.20;;
26536;SDS011;14204;51.262;5.488;2023-03-23T08:51:48;4.35;;;1.00;;
26536;SDS011;14204;51.262;5.488;2023-03-23T08:54:14;5.60;;;1.30;;
26536;SDS011;14204;51.262;5.488;2023-03-23T08:56:42;4.43;;;0.90;;
26536;SDS011;14204;51.262;5.488;2023-03-23T08:59:08;2.97;;;0.90;;
26536;SDS011;14204;51.262;5.488;2023-03-23T09:01:34;2.63;;;0.77;;
26536;SDS011;14204;51.262;5.488;2023-03-23T09:04:00;4.55;;;1.13;;
26536;SDS011;14204;51.262;5.488;2023-03-23T09:06:25;2.45;;;0.80;;
26536;SDS011;14204;51.262;5.488;2023-03-23T09:08:52;3.50;;;1.15;;
26536;SDS011;14204;51.262;5.488;2023-03-23T09:11:20;3.00;;;0.90;;
26536;SDS011;14204;51.262;5.488;2023-03-23T09:13:47;2.03;;;0.60;;
26536;SDS011;14204;51.262;5.488;2023-03-23T09:16:13;2.85;;;0.88;;
26536;SDS011;14204;51.262;5.488;2023-03-23T09:18:39;2.00;;;1.20;;
26536;SDS011;14204;51.262;5.488;2023-03-23T09:21:06;2.05;;;1.02;;
26536;SDS011;14204;51.262;5.488;2023-03-23T09:23:32;2.67;;;0.93;;
26536;SDS011;14204;51.262;5.488;2023-03-23T09:26:01;1.92;;;0.90;;
26536;SDS011;14204;51.262;5.488;2023-03-23T09:28:28;2.42;;;1.05;;
26536;SDS011;14204;51.262;5.488;2023-03-23T09:30:55;3.17;;;0.95;;
26536;SDS011;14204;51.262;5.488;2023-03-23T09:33:22;2.00;;;0.85;;
26536;SDS011;14204;51.262;5.488;2023-03-23T09:35:49;2.45;;;0.88;;
26536;SDS011;14204;51.262;5.488;2023-03-23T09:38:14;2.80;;;1.20;;
26536;SDS011;14204;51.262;5.488;2023-03-23T09:40:52;4.47;;;1.10;;
26536;SDS011;14204;51.262;5.488;2023-03-23T09:43:39;6.28;;;1.70;;
26536;SDS011;14204;51.262;5.488;2023-03-23T09:47:04;4.88;;;1.42;;
26536;SDS011;14204;51.262;5.488;2023-03-23T09:49:22;4.18;;;1.33;;
26536;SDS011;14204;51.262;5.488;2023-03-23T09:51:56;1.50;;;0.90;;
26536;SDS011;14204;51.262;5.488;2023-03-23T09:54:29;6.70;;;1.80;;
26536;SDS011;14204;51.262;5.488;2023-03-23T10:02:36;2.95;;;1.30;;
26536;SDS011;14204;51.262;5.488;2023-03-23T10:08:16;6.28;;;1.63;;
26536;SDS011;14204;51.262;5.488;2023-03-23T10:16:12;5.30;;;1.60;;
26536;SDS011;14204;51.262;5.488;2023-03-23T10:21:19;3.38;;;1.48;;
26536;SDS011;14204;51.262;5.488;2023-03-23T10:24:00;4.43;;;2.47;;
26536;SDS011;14204;51.262;5.488;2023-03-23T10:29:24;7.40;;;2.08;;
26536;SDS011;14204;51.262;5.488;2023-03-23T10:32:01;6.28;;;2.00;;
26536;SDS011;14204;51.262;5.488;2023-03-23T10:34:52;2.85;;;1.60;;
26536;SDS011;14204;51.262;5.488;2023-03-23T10:37:24;4.82;;;1.80;;
26536;SDS011;14204;51.262;5.488;2023-03-23T10:39:54;7.05;;;2.17;;
26536;SDS011;14204;51.262;5.488;2023-03-23T10:44:55;4.82;;;1.55;;
26536;SDS011;14204;51.262;5.488;2023-03-23T10:47:21;2.88;;;1.35;;
26536;SDS011;14204;51.262;5.488;2023-03-23T10:49:49;4.03;;;1.48;;
26536;SDS011;14204;51.262;5.488;2023-03-23T10:52:32;2.58;;;1.20;;
26536;SDS011;14204;51.262;5.488;2023-03-23T10:55:08;3.97;;;1.50;;
26536;SDS011;14204;51.262;5.488;2023-03-23T10:57:38;2.83;;;1.23;;
26536;SDS011;14204;51.262;5.488;2023-03-23T11:00:17;2.60;;;1.10;;
26536;SDS011;14204;51.262;5.488;2023-03-23T11:02:59;2.90;;;1.30;;
26536;SDS011;14204;51.262;5.488;2023-03-23T11:05:26;4.93;;;1.20;;
26536;SDS011;14204;51.262;5.488;2023-03-23T11:08:09;6.32;;;1.80;;
26536;SDS011;14204;51.262;5.488;2023-03-23T11:10:39;1.67;;;1.23;;
26536;SDS011;14204;51.262;5.488;2023-03-23T11:13:13;4.55;;;2.63;;
26536;SDS011;14204;51.262;5.488;2023-03-23T11:15:41;2.53;;;1.55;;
26536;SDS011;14204;51.262;5.488;2023-03-23T11:18:10;3.17;;;1.30;;
26536;SDS011;14204;51.262;5.488;2023-03-23T11:20:41;4.30;;;2.45;;
26536;SDS011;14204;51.262;5.488;2023-03-23T11:23:19;4.72;;;2.10;;
26536;SDS011;14204;51.262;5.488;2023-03-23T11:25:54;3.42;;;1.65;;
26536;SDS011;14204;51.262;5.488;2023-03-23T11:28:48;7.50;;;1.70;;
26536;SDS011;14204;51.262;5.488;2023-03-23T11:31:27;4.47;;;1.40;;
26536;SDS011;14204;51.262;5.488;2023-03-23T11:37:09;2.80;;;1.58;;
26536;SDS011;14204;51.262;5.488;2023-03-23T11:39:54;2.83;;;1.67;;
26536;SDS011;14204;51.262;5.488;2023-03-23T11:42:44;4.07;;;1.35;;
26536;SDS011;14204;51.262;5.488;2023-03-23T11:47:46;5.20;;;2.00;;
26536;SDS011;14204;51.262;5.488;2023-03-23T11:50:26;5.35;;;1.80;;
26536;SDS011;14204;51.262;5.488;2023-03-23T11:55:33;4.85;;;1.65;;
26536;SDS011;14204;51.262;5.488;2023-03-23T11:58:19;3.55;;;1.85;;
26536;SDS011;14204;51.262;5.488;2023-03-23T12:00:51;4.80;;;1.95;;
26536;SDS011;14204;51.262;5.488;2023-03-23T12:12:26;4.40;;;1.75;;
26536;SDS011;14204;51.262;5.488;2023-03-23T12:33:51;4.80;;;1.95;;
26536;SDS011;14204;51.262;5.488;2023-03-23T12:41:52;8.00;;;2.50;;
26536;SDS011;14204;51.262;5.488;2023-03-23T12:45:01;8.23;;;2.97;;
26536;SDS011;14204;51.262;5.488;2023-03-23T12:48:07;8.65;;;2.30;;
26536;SDS011;14204;51.262;5.488;2023-03-23T12:50:36;6.63;;;2.58;;
26536;SDS011;14204;51.262;5.488;2023-03-23T12:53:14;6.05;;;2.50;;
26536;SDS011;14204;51.262;5.488;2023-03-23T12:55:47;8.95;;;2.72;;
26536;SDS011;14204;51.262;5.488;2023-03-23T12:58:34;8.82;;;3.00;;
26536;SDS011;14204;51.262;5.488;2023-03-23T13:01:08;5.90;;;2.70;;
26536;SDS011;14204;51.262;5.488;2023-03-23T13:03:46;6.15;;;3.20;;
26536;SDS011;14204;51.262;5.488;2023-03-23T13:11:34;10.13;;;4.68;;
26536;SDS011;14204;51.262;5.488;2023-03-23T13:25:43;10.40;;;3.55;;
26536;SDS011;14204;51.262;5.488;2023-03-23T13:28:18;3.95;;;2.10;;
26536;SDS011;14204;51.262;5.488;2023-03-23T13:30:55;7.47;;;2.35;;
26536;SDS011;14204;51.262;5.488;2023-03-23T13:33:23;5.23;;;2.53;;
26536;SDS011;14204;51.262;5.488;2023-03-23T13:35:49;7.68;;;2.65;;
26536;SDS011;14204;51.262;5.488;2023-03-23T13:38:28;4.50;;;2.65;;
26536;SDS011;14204;51.262;5.488;2023-03-23T13:40:54;7.50;;;2.35;;
26536;SDS011;14204;51.262;5.488;2023-03-23T13:43:29;6.28;;;2.38;;
26536;SDS011;14204;51.262;5.488;2023-03-23T13:46:06;5.22;;;2.63;;
26536;SDS011;14204;51.262;5.488;2023-03-23T13:48:50;7.95;;;3.15;;
26536;SDS011;14204;51.262;5.488;2023-03-23T13:56:58;4.57;;;2.13;;
26536;SDS011;14204;51.262;5.488;2023-03-23T14:01:52;5.93;;;1.77;;
26536;SDS011;14204;51.262;5.488;2023-03-23T14:04:38;4.88;;;1.73;;
26536;SDS011;14204;51.262;5.488;2023-03-23T14:07:11;9.43;;;2.13;;
26536;SDS011;14204;51.262;5.488;2023-03-23T14:09:38;7.03;;;2.47;;
26536;SDS011;14204;51.262;5.488;2023-03-23T14:12:14;7.20;;;2.90;;
26536;SDS011;14204;51.262;5.488;2023-03-23T14:14:55;10.57;;;3.13;;
26536;SDS011;14204;51.262;5.488;2023-03-23T14:17:28;8.95;;;2.75;;
26536;SDS011;14204;51.262;5.488;2023-03-23T14:19:55;7.72;;;2.42;;
26536;SDS011;14204;51.262;5.488;2023-03-23T14:22:27;8.60;;;2.10;;
26536;SDS011;14204;51.262;5.488;2023-03-23T14:25:02;8.70;;;2.95;;
26536;SDS011;14204;51.262;5.488;2023-03-23T14:27:39;8.77;;;2.40;;
26536;SDS011;14204;51.262;5.488;2023-03-23T14:30:08;8.27;;;2.65;;
26536;SDS011;14204;51.262;5.488;2023-03-23T14:32:38;11.00;;;2.80;;
26536;SDS011;14204;51.262;5.488;2023-03-23T14:35:05;8.65;;;2.55;;
26536;SDS011;14204;51.262;5.488;2023-03-23T14:37:37;6.45;;;2.38;;
26536;SDS011;14204;51.262;5.488;2023-03-23T14:40:03;7.15;;;2.28;;
26536;SDS011;14204;51.262;5.488;2023-03-23T14:42:33;10.00;;;2.78;;
26536;SDS011;14204;51.262;5.488;2023-03-23T14:45:01;10.48;;;3.15;;
26536;SDS011;14204;51.262;5.488;2023-03-23T14:47:31;6.03;;;2.10;;
26536;SDS011;14204;51.262;5.488;2023-03-23T14:50:04;7.13;;;2.28;;
26536;SDS011;14204;51.262;5.488;2023-03-23T14:52:35;8.95;;;3.00;;
26536;SDS011;14204;51.262;5.488;2023-03-23T14:55:12;10.15;;;3.03;;
26536;SDS011;14204;51.262;5.488;2023-03-23T14:57:41;6.22;;;2.67;;
26536;SDS011;14204;51.262;5.488;2023-03-23T15:00:19;11.75;;;2.90;;
26536;SDS011;14204;51.262;5.488;2023-03-23T15:02:51;11.55;;;3.20;;
26536;SDS011;14204;51.262;5.488;2023-03-23T15:05:34;7.55;;;2.55;;
26536;SDS011;14204;51.262;5.488;2023-03-23T15:08:04;10.90;;;2.67;;
26536;SDS011;14204;51.262;5.488;2023-03-23T15:10:31;9.30;;;2.58;;
26536;SDS011;14204;51.262;5.488;2023-03-23T15:12:59;11.77;;;2.88;;
26536;SDS011;14204;51.262;5.488;2023-03-23T15:15:26;10.35;;;3.30;;
26536;SDS011;14204;51.262;5.488;2023-03-23T15:17:54;9.52;;;3.22;;
26536;SDS011;14204;51.262;5.488;2023-03-23T15:20:25;9.00;;;3.03;;
26536;SDS011;14204;51.262;5.488;2023-03-23T15:22:55;6.95;;;3.10;;
26536;SDS011;14204;51.262;5.488;2023-03-23T15:25:30;7.70;;;2.95;;
26536;SDS011;14204;51.262;5.488;2023-03-23T15:28:06;5.40;;;2.55;;
26536;SDS011;14204;51.262;5.488;2023-03-23T15:30:50;4.93;;;2.38;;
26536;SDS011;14204;51.262;5.488;2023-03-23T15:33:18;12.88;;;3.40;;
26536;SDS011;14204;51.262;5.488;2023-03-23T15:35:51;8.75;;;3.40;;
26536;SDS011;14204;51.262;5.488;2023-03-23T15:38:20;7.95;;;3.97;;
26536;SDS011;14204;51.262;5.488;2023-03-23T15:40:52;9.57;;;3.28;;
26536;SDS011;14204;51.262;5.488;2023-03-23T15:43:23;8.68;;;3.50;;
26536;SDS011;14204;51.262;5.488;2023-03-23T15:45:56;7.95;;;3.10;;
26536;SDS011;14204;51.262;5.488;2023-03-23T15:48:25;8.07;;;3.15;;
26536;SDS011;14204;51.262;5.488;2023-03-23T15:50:52;10.50;;;3.40;;
26536;SDS011;14204;51.262;5.488;2023-03-23T15:53:31;8.43;;;3.33;;
26536;SDS011;14204;51.262;5.488;2023-03-23T15:55:59;7.60;;;2.70;;
26536;SDS011;14204;51.262;5.488;2023-03-23T15:58:26;5.28;;;2.25;;
26536;SDS011;14204;51.262;5.488;2023-03-23T16:00:53;8.80;;;3.10;;
26536;SDS011;14204;51.262;5.488;2023-03-23T16:03:21;11.25;;;3.30;;
26536;SDS011;14204;51.262;5.488;2023-03-23T16:05:51;8.15;;;2.60;;
26536;SDS011;14204;51.262;5.488;2023-03-23T16:08:18;6.13;;;2.80;;
26536;SDS011;14204;51.262;5.488;2023-03-23T16:10:43;9.93;;;3.10;;
26536;SDS011;14204;51.262;5.488;2023-03-23T16:13:09;10.07;;;3.13;;
26536;SDS011;14204;51.262;5.488;2023-03-23T16:15:35;8.50;;;3.78;;
26536;SDS011;14204;51.262;5.488;2023-03-23T16:18:01;10.48;;;3.25;;
26536;SDS011;14204;51.262;5.488;2023-03-23T16:20:27;7.85;;;3.30;;
26536;SDS011;14204;51.262;5.488;2023-03-23T16:22:54;9.80;;;3.10;;
26536;SDS011;14204;51.262;5.488;2023-03-23T16:25:20;10.27;;;3.10;;
26536;SDS011;14204;51.262;5.488;2023-03-23T16:27:46;9.63;;;2.83;;
26536;SDS011;14204;51.262;5.488;2023-03-23T16:30:22;10.85;;;3.92;;
26536;SDS011;14204;51.262;5.488;2023-03-23T16:32:50;7.22;;;3.15;;
26536;SDS011;14204;51.262;5.488;2023-03-23T16:35:16;9.93;;;3.85;;
26536;SDS011;14204;51.262;5.488;2023-03-23T16:37:44;9.32;;;2.85;;
26536;SDS011;14204;51.262;5.488;2023-03-23T16:40:11;8.30;;;3.80;;
26536;SDS011;14204;51.262;5.488;2023-03-23T16:42:38;5.88;;;2.95;;
26536;SDS011;14204;51.262;5.488;2023-03-23T16:45:04;9.85;;;3.80;;
26536;SDS011;14204;51.262;5.488;2023-03-23T16:47:31;12.38;;;3.25;;
26536;SDS011;14204;51.262;5.488;2023-03-23T16:49:56;10.30;;;3.53;;
26536;SDS011;14204;51.262;5.488;2023-03-23T16:52:22;12.15;;;3.15;;
26536;SDS011;14204;51.262;5.488;2023-03-23T16:54:48;8.52;;;2.80;;
26536;SDS011;14204;51.262;5.488;2023-03-23T16:57:13;7.70;;;3.10;;